METAR Data
IDs: Format: Raw Decoded Include TAF

Data at: 1152 UTC 23 Sep 2018

KTKC 231059Z AUTO 20014KT 10SM CLR 14/09 A2996 RMK AO2
KTKC 230959Z AUTO 20015G21KT 10SM CLR 14/09 A2996 RMK AO2
KTKC 230859Z AUTO 20014KT 10SM CLR 14/09 A2996 RMK AO2
KTKC 230759Z AUTO 20014G21KT 10SM CLR 14/09 A2998 RMK AO2
KTKC 230659Z AUTO 20014G20KT 10SM CLR 14/09 A2999 RMK AO2
KTKC 230559Z AUTO 20013G18KT 10SM CLR 14/09 A2999 RMK AO2
KTKC 230459Z AUTO 19011KT 10SM CLR 14/09 A3000 RMK AO2
KTKC 230359Z AUTO 18007KT 10SM CLR 14/09 A3000 RMK AO2
KTKC 230259Z AUTO 18005KT 10SM CLR 15/09 A3002 RMK AO2
KTKC 230159Z AUTO 18004KT 10SM CLR 16/09 A3002 RMK AO2
KTKC 230059Z AUTO 18008KT 10SM CLR 17/09 A3000 RMK AO2
KTKC 222359Z AUTO 17007KT 10SM CLR 19/08 A3000 RMK AO2
KTKC 222259Z AUTO 18011G19KT 10SM CLR 20/08 A3001 RMK AO2
KTKC 222159Z AUTO 18013G21KT 10SM CLR 21/07 A3002 RMK AO2
KTKC 222059Z AUTO 18013G20KT 10SM CLR 21/07 A3005 RMK AO2
KTKC 221959Z AUTO 20011G17KT 10SM CLR 20/08 A3009 RMK AO2
KTKC 221859Z AUTO 17012KT 10SM CLR 19/08 A3012 RMK AO2
KTKC 221759Z AUTO 19010G17KT 10SM CLR 17/08 A3015 RMK AO2
KTKC 221659Z AUTO 17010KT 10SM CLR 15/08 A3018 RMK AO2
KTKC 221559Z AUTO 19012G20KT 10SM CLR 14/07 A3021 RMK AO2
KTKC 221459Z AUTO 19012G19KT 10SM CLR 12/07 A3022 RMK AO2
KTKC 221359Z AUTO 18011G16KT 10SM CLR 10/06 A3023 RMK AO2
KTKC 221259Z AUTO 19008KT 10SM CLR 08/06 A3025 RMK AO2
KTKC 221159Z AUTO 18007KT 10SM CLR 07/05 A3026 RMK AO2
KTKC 221059Z AUTO 19008G14KT 10SM CLR 07/05 A3026 RMK AO2
KTKC 220959Z AUTO 18005KT 10SM CLR 07/05 A3028 RMK AO2
KTKC 220859Z AUTO 19005KT 10SM CLR 08/05 A3030 RMK AO2
KTKC 220759Z AUTO 19006KT 10SM CLR 08/05 A3030 RMK AO2
KTKC 220659Z AUTO 20007KT 10SM CLR 07/05 A3032 RMK AO2
KTKC 220559Z AUTO 20006KT 10SM CLR 08/05 A3033 RMK AO2
KTKC 220459Z AUTO 19004KT 10SM CLR 08/05 A3033 RMK AO2
KTKC 220359Z AUTO 19004KT 10SM CLR 08/05 A3034 RMK AO2
KTKC 220259Z AUTO 18003KT 10SM CLR 08/06 A3033 RMK AO2
KTKC 220159Z AUTO 00000KT 10SM CLR 08/06 A3032 RMK AO2
KTKC 220059Z AUTO 00000KT 10SM CLR 09/07 A3031 RMK AO2
KTKC 212359Z AUTO 03003KT 10SM CLR 12/06 A3030 RMK AO2